createdAt,value
2024-04-14T00:01:16.505Z,16.00
2024-04-14T00:03:44.155Z,16.00
2024-04-14T00:06:29.520Z,16.00
2024-04-14T00:09:08.158Z,16.00
2024-04-14T00:11:39.553Z,16.10
2024-04-14T00:14:20.876Z,16.10
2024-04-14T00:16:51.229Z,16.10
2024-04-14T00:19:25.757Z,16.00
2024-04-14T00:21:56.485Z,16.00
2024-04-14T00:24:28.798Z,15.90
2024-04-14T00:26:58.164Z,15.90
2024-04-14T00:29:40.403Z,15.80
2024-04-14T00:32:10.564Z,15.80
2024-04-14T00:34:46.133Z,15.80
2024-04-14T00:37:20.438Z,15.70
2024-04-14T00:39:58.145Z,15.70
2024-04-14T00:45:35.281Z,15.60
2024-04-14T00:48:20.782Z,15.60
2024-04-14T00:50:52.767Z,15.50
2024-04-14T00:53:23.428Z,15.50
2024-04-14T00:55:56.180Z,15.40
2024-04-14T00:58:26.927Z,15.30
2024-04-14T01:01:02.987Z,15.30
2024-04-14T01:03:30.545Z,15.30
2024-04-14T01:06:09.592Z,15.20
2024-04-14T01:08:43.595Z,15.20
2024-04-14T01:11:17.029Z,15.20
2024-04-14T01:13:55.139Z,15.20
2024-04-14T01:16:40.875Z,15.20
2024-04-14T01:22:06.270Z,15.20
2024-04-14T01:24:35.185Z,15.10
2024-04-14T01:27:15.638Z,15.10
2024-04-14T01:29:46.488Z,15.00
2024-04-14T01:32:21.910Z,14.90
2024-04-14T01:34:53.818Z,14.90
2024-04-14T01:37:32.941Z,14.80
2024-04-14T01:40:03.657Z,14.80
2024-04-14T01:42:40.747Z,14.80
2024-04-14T01:47:56.607Z,14.80
2024-04-14T01:50:26.208Z,14.70
2024-04-14T01:53:13.249Z,14.70
2024-04-14T01:55:49.350Z,14.80
2024-04-14T01:58:30.509Z,14.70
2024-04-14T02:01:01.376Z,14.70
2024-04-14T02:03:43.450Z,14.70
2024-04-14T02:06:15.256Z,14.60
2024-04-14T02:08:47.955Z,14.60
2024-04-14T02:11:20.858Z,14.60
2024-04-14T02:13:58.419Z,14.60
2024-04-14T02:16:27.731Z,14.60
2024-04-14T02:19:09.036Z,14.60
2024-04-14T02:21:39.281Z,14.60
2024-04-14T02:24:11.211Z,14.60
2024-04-14T02:26:42.852Z,14.50
2024-04-14T02:29:18.056Z,14.50
2024-04-14T02:31:46.505Z,14.50
2024-04-14T02:34:24.426Z,14.50
2024-04-14T02:36:54.068Z,14.50
2024-04-14T02:39:28.624Z,14.50
2024-04-14T02:41:55.983Z,14.50
2024-04-14T02:44:40.583Z,14.50
2024-04-14T02:50:06.542Z,14.60
2024-04-14T02:52:35.481Z,14.60
2024-04-14T02:55:08.884Z,14.60
2024-04-14T02:57:40.591Z,14.60
2024-04-14T03:00:19.071Z,14.60
2024-04-14T03:02:47.645Z,14.50
2024-04-14T03:05:33.177Z,14.50
2024-04-14T03:08:12.295Z,14.50
2024-04-14T03:10:44.961Z,14.40
2024-04-14T03:13:14.066Z,14.40
2024-04-14T03:16:04.146Z,14.40
2024-04-14T03:18:33.073Z,14.40
2024-04-14T03:21:14.551Z,14.40
2024-04-14T03:23:44.505Z,14.30
2024-04-14T03:26:15.734Z,14.30
2024-04-14T03:28:44.349Z,14.30
2024-04-14T03:31:38.266Z,14.30
2024-04-14T03:34:07.937Z,14.30
2024-04-14T03:36:40.899Z,14.20
2024-04-14T03:39:12.618Z,14.20
2024-04-14T03:41:49.044Z,14.20
2024-04-14T03:44:21.968Z,14.20
2024-04-14T03:47:03.653Z,14.20
2024-04-14T03:49:38.474Z,14.20
2024-04-14T03:52:07.161Z,14.10
2024-04-14T03:54:41.732Z,14.10
2024-04-14T03:57:12.428Z,14.00
2024-04-14T03:59:55.574Z,14.00
2024-04-14T04:02:35.258Z,14.00
2024-04-14T04:05:12.622Z,13.90
2024-04-14T04:08:09.204Z,13.90
2024-04-14T04:10:41.050Z,13.90
2024-04-14T04:13:11.414Z,14.00
2024-04-14T04:15:43.244Z,14.00
2024-04-14T04:18:28.610Z,14.10
2024-04-14T04:21:07.219Z,14.10
2024-04-14T04:23:36.587Z,14.10
2024-04-14T04:26:15.726Z,14.10
2024-04-14T04:28:44.406Z,14.10
2024-04-14T04:31:18.604Z,14.00
2024-04-14T04:33:53.080Z,14.00
2024-04-14T04:36:27.833Z,14.00
2024-04-14T04:39:06.299Z,14.00
2024-04-14T04:41:53.050Z,14.00
2024-04-14T04:44:25.012Z,14.00
2024-04-14T04:46:53.743Z,14.00
2024-04-14T04:49:34.312Z,14.00
2024-04-14T04:52:02.602Z,14.00
2024-04-14T04:54:35.627Z,14.00
2024-04-14T04:57:05.079Z,14.00
2024-04-14T04:59:44.535Z,14.10
2024-04-14T05:02:14.820Z,14.10
2024-04-14T05:04:52.935Z,14.10
2024-04-14T05:07:25.028Z,14.20
2024-04-14T05:09:57.253Z,14.20
2024-04-14T05:12:27.277Z,14.20
2024-04-14T05:14:57.678Z,14.30
2024-04-14T05:17:27.295Z,14.40
2024-04-14T05:20:07.351Z,14.50
2024-04-14T05:22:39.295Z,14.70
2024-04-14T05:25:17.907Z,14.90
2024-04-14T05:27:47.645Z,15.10
2024-04-14T05:30:20.526Z,15.40
2024-04-14T05:32:51.322Z,15.60
2024-04-14T05:35:28.341Z,15.90
2024-04-14T05:37:59.121Z,16.00
2024-04-14T05:40:32.838Z,16.20
2024-04-14T05:43:02.150Z,16.30
2024-04-14T05:45:35.611Z,16.30
2024-04-14T05:48:09.982Z,16.20
2024-04-14T05:50:52.759Z,16.00
2024-04-14T05:53:25.149Z,15.90
2024-04-14T05:55:57.295Z,15.80
2024-04-14T05:58:26.143Z,15.70
2024-04-14T06:01:08.255Z,15.60
2024-04-14T06:03:36.632Z,15.60
2024-04-14T06:06:16.235Z,15.60
2024-04-14T06:08:48.426Z,15.70
2024-04-14T06:11:36.722Z,15.70
2024-04-14T06:14:07.781Z,15.80
2024-04-14T06:17:08.750Z,15.90
2024-04-14T06:19:40.603Z,16.00
2024-04-14T06:22:13.359Z,16.10
2024-04-14T06:24:43.572Z,16.20
2024-04-14T06:27:21.738Z,16.30
2024-04-14T06:29:51.367Z,16.40
2024-04-14T06:32:31.850Z,16.50
2024-04-14T06:35:02.955Z,16.50
2024-04-14T06:37:42.745Z,16.60
2024-04-14T06:40:11.612Z,16.70
2024-04-14T06:42:52.813Z,16.80
2024-04-14T06:45:22.690Z,16.90
2024-04-14T06:47:55.631Z,16.90
2024-04-14T06:50:27.545Z,17.00
2024-04-14T06:53:10.028Z,17.10
2024-04-14T06:55:37.917Z,17.10
2024-04-14T06:58:11.623Z,17.20
2024-04-14T07:00:43.971Z,17.20
2024-04-14T07:03:23.036Z,17.20
2024-04-14T07:08:47.984Z,17.30
2024-04-14T07:11:20.655Z,17.40
2024-04-14T07:13:59.045Z,17.40
2024-04-14T07:16:30.529Z,17.50
2024-04-14T07:19:00.956Z,17.50
2024-04-14T07:21:28.521Z,17.60
2024-04-14T07:24:04.675Z,17.60
2024-04-14T07:26:34.910Z,17.70
2024-04-14T07:29:06.860Z,17.70
2024-04-14T07:31:33.892Z,17.80
2024-04-14T07:34:07.187Z,17.80
2024-04-14T07:36:38.870Z,17.80
2024-04-14T07:39:25.055Z,17.80
2024-04-14T07:41:53.330Z,17.90
2024-04-14T07:44:27.585Z,17.90
2024-04-14T07:46:57.653Z,17.90
2024-04-14T07:49:39.929Z,18.00
2024-04-14T07:52:22.485Z,18.00
2024-04-14T07:54:57.938Z,18.00
2024-04-14T07:57:39.747Z,18.10
2024-04-14T08:00:11.914Z,18.10
2024-04-14T08:02:49.313Z,18.10
2024-04-14T08:05:17.670Z,18.10
2024-04-14T08:07:48.419Z,18.20
2024-04-14T08:10:31.182Z,18.20
2024-04-14T08:13:09.363Z,18.20
2024-04-14T08:15:39.148Z,18.20
2024-04-14T08:18:11.542Z,18.20
2024-04-14T08:20:45.734Z,18.30
2024-04-14T08:23:35.527Z,18.30
2024-04-14T08:26:18.053Z,18.40
2024-04-14T08:28:50.149Z,18.40
2024-04-14T08:31:23.193Z,18.40
2024-04-14T08:33:53.841Z,18.40
2024-04-14T08:36:24.795Z,18.40
2024-04-14T08:39:08.001Z,18.50
2024-04-14T08:41:52.312Z,18.50
2024-04-14T08:44:30.723Z,18.50
2024-04-14T08:47:01.501Z,18.60
2024-04-14T08:49:49.015Z,18.60
2024-04-14T08:52:19.444Z,18.60
2024-04-14T08:54:52.181Z,18.70
2024-04-14T08:57:28.254Z,18.80
2024-04-14T09:00:05.359Z,18.80
2024-04-14T09:02:34.389Z,18.80
2024-04-14T09:05:12.021Z,18.80
2024-04-14T09:07:41.272Z,18.90
2024-04-14T09:10:15.507Z,18.90
2024-04-14T09:12:55.315Z,18.90
2024-04-14T09:15:31.539Z,18.90
2024-04-14T09:18:00.526Z,18.90
2024-04-14T09:20:37.470Z,19.00
2024-04-14T09:23:05.987Z,19.00
2024-04-14T09:25:47.516Z,19.00
2024-04-14T09:28:30.197Z,19.10
2024-04-14T09:30:58.234Z,19.10
2024-04-14T09:33:36.622Z,19.10
2024-04-14T09:36:07.415Z,19.10
2024-04-14T09:38:39.041Z,19.20
2024-04-14T09:41:06.810Z,19.20
2024-04-14T09:43:50.735Z,19.30
2024-04-14T09:46:23.327Z,19.30
2024-04-14T09:49:01.010Z,19.30
2024-04-14T09:51:30.120Z,19.30
2024-04-14T09:54:13.957Z,19.30
2024-04-14T09:56:48.635Z,19.40
2024-04-14T09:59:39.020Z,19.40
2024-04-14T10:02:12.981Z,19.40
2024-04-14T10:05:11.006Z,19.50
2024-04-14T10:07:38.713Z,19.50
2024-04-14T10:10:16.313Z,19.50
2024-04-14T10:12:49.080Z,19.60
2024-04-14T10:15:32.869Z,19.60
2024-04-14T10:18:12.547Z,19.60
2024-04-14T10:20:51.869Z,19.70
2024-04-14T10:23:21.507Z,19.70
2024-04-14T10:26:05.975Z,19.70
2024-04-14T10:28:39.348Z,19.70
2024-04-14T10:31:12.537Z,19.80
2024-04-14T10:33:51.669Z,19.80
2024-04-14T10:36:25.880Z,19.90
2024-04-14T10:39:06.265Z,19.90
2024-04-14T10:41:36.566Z,19.90
2024-04-14T10:44:30.679Z,19.90
2024-04-14T10:47:07.820Z,19.90
2024-04-14T10:49:45.022Z,20.00
2024-04-14T10:52:14.292Z,20.00
2024-04-14T10:54:48.584Z,20.00
2024-04-14T10:57:17.981Z,20.00
2024-04-14T10:59:56.189Z,20.10
2024-04-14T11:02:29.622Z,20.10
2024-04-14T11:05:10.400Z,20.10
2024-04-14T11:07:47.832Z,20.10
2024-04-14T11:10:21.065Z,20.10
2024-04-14T11:12:58.230Z,20.10
2024-04-14T11:15:37.152Z,20.10
2024-04-14T11:18:10.829Z,20.20
2024-04-14T11:20:50.811Z,20.20
2024-04-14T11:23:32.585Z,20.20
2024-04-14T11:26:06.380Z,20.30
2024-04-14T11:28:37.266Z,20.30
2024-04-14T11:31:10.342Z,20.30
2024-04-14T11:33:44.124Z,20.30
2024-04-14T11:36:24.836Z,20.40
2024-04-14T11:38:59.857Z,20.40
2024-04-14T11:41:34.515Z,20.50
2024-04-14T11:44:02.565Z,20.60
2024-04-14T11:46:39.936Z,20.60
2024-04-14T11:49:13.095Z,20.60
2024-04-14T11:52:03.290Z,20.60
2024-04-14T11:57:21.016Z,20.70
2024-04-14T11:59:53.358Z,20.80
2024-04-14T12:02:32.793Z,20.80
2024-04-14T12:05:06.456Z,20.80
2024-04-14T12:07:45.887Z,20.90
2024-04-14T12:10:14.432Z,20.90
2024-04-14T12:12:46.486Z,20.90
2024-04-14T12:18:11.264Z,21.00
2024-04-14T12:20:58.309Z,21.00
2024-04-14T12:23:34.189Z,21.00
2024-04-14T12:26:03.072Z,21.00
2024-04-14T12:28:37.534Z,21.00
2024-04-14T12:31:07.606Z,21.00
2024-04-14T12:33:41.722Z,21.00
2024-04-14T12:36:13.974Z,21.00
2024-04-14T12:38:50.773Z,21.00
2024-04-14T12:41:19.260Z,21.00
2024-04-14T12:43:52.556Z,21.00
2024-04-14T12:46:26.714Z,21.00
2024-04-14T12:49:04.298Z,21.00
2024-04-14T12:51:40.126Z,21.00
2024-04-14T12:54:21.092Z,21.00
2024-04-14T12:56:54.333Z,21.00
2024-04-14T12:59:35.937Z,21.00
2024-04-14T13:02:13.554Z,21.00
2024-04-14T13:04:44.449Z,21.10
2024-04-14T13:07:33.150Z,21.10
2024-04-14T13:10:07.983Z,21.10
2024-04-14T13:12:38.670Z,21.10
2024-04-14T13:15:15.264Z,21.20
2024-04-14T13:17:43.585Z,21.30
2024-04-14T13:20:22.429Z,21.30
2024-04-14T13:23:02.005Z,21.40
2024-04-14T13:25:33.732Z,21.40
2024-04-14T13:28:06.825Z,21.40
2024-04-14T13:30:46.620Z,21.40
2024-04-14T13:33:17.566Z,21.40
2024-04-14T13:35:48.212Z,21.40
2024-04-14T13:38:24.587Z,21.40
2024-04-14T13:40:57.242Z,21.40
2024-04-14T13:43:28.360Z,21.40
2024-04-14T13:46:11.601Z,21.40
2024-04-14T13:48:39.204Z,21.50
2024-04-14T13:51:17.506Z,21.50
2024-04-14T13:53:53.375Z,21.50
2024-04-14T13:56:26.227Z,21.50
2024-04-14T13:58:56.971Z,21.60
2024-04-14T14:01:38.243Z,21.60
2024-04-14T14:04:09.151Z,21.60
2024-04-14T14:06:46.991Z,21.70
2024-04-14T14:09:20.668Z,21.60
2024-04-14T14:11:56.247Z,21.60
2024-04-14T14:14:26.926Z,21.60
2024-04-14T14:16:57.261Z,21.60
2024-04-14T14:19:28.837Z,21.60
2024-04-14T14:22:07.549Z,21.60
2024-04-14T14:24:40.335Z,21.60
2024-04-14T14:27:16.137Z,21.70
2024-04-14T14:29:47.087Z,21.70
2024-04-14T14:32:20.913Z,21.60
2024-04-14T14:35:15.946Z,21.60
2024-04-14T14:37:50.250Z,21.60
2024-04-14T14:40:28.313Z,21.60
2024-04-14T14:43:02.778Z,21.60
2024-04-14T14:45:35.072Z,21.50
2024-04-14T14:48:05.273Z,21.50
2024-04-14T14:50:36.980Z,21.50
2024-04-14T14:53:13.744Z,21.50
2024-04-14T14:55:46.880Z,21.50
2024-04-14T14:58:25.229Z,21.50
2024-04-14T15:01:02.175Z,21.50
2024-04-14T15:03:46.682Z,21.50
2024-04-14T15:06:20.269Z,21.50
2024-04-14T15:08:53.093Z,21.50
2024-04-14T15:11:31.619Z,21.50
2024-04-14T15:14:04.177Z,21.60
2024-04-14T15:16:41.536Z,21.60
2024-04-14T15:19:21.198Z,21.60
2024-04-14T15:22:04.789Z,21.70
2024-04-14T15:24:36.718Z,21.70
2024-04-14T15:27:13.508Z,21.70
2024-04-14T15:29:41.088Z,21.60
2024-04-14T15:32:19.665Z,21.60
2024-04-14T15:37:43.826Z,21.50
2024-04-14T15:40:17.004Z,21.50
2024-04-14T15:42:54.939Z,21.50
2024-04-14T15:45:37.698Z,21.50
2024-04-14T15:48:19.750Z,21.40
2024-04-14T15:50:52.976Z,21.40
2024-04-14T15:53:29.870Z,21.40
2024-04-14T15:56:01.932Z,21.40
2024-04-14T15:58:39.448Z,21.40
2024-04-14T16:01:08.795Z,21.40
2024-04-14T16:03:41.153Z,21.40
2024-04-14T16:06:12.110Z,21.40
2024-04-14T16:08:50.295Z,21.40
2024-04-14T16:11:20.318Z,21.40
2024-04-14T16:13:58.850Z,21.40
2024-04-14T16:16:28.638Z,21.40
2024-04-14T16:19:26.719Z,21.40
2024-04-14T16:21:59.761Z,21.40
2024-04-14T16:24:38.859Z,21.30
2024-04-14T16:27:16.804Z,21.30
2024-04-14T16:29:58.902Z,21.30
2024-04-14T16:32:28.420Z,21.20
2024-04-14T16:35:04.256Z,21.20
2024-04-14T16:37:34.138Z,21.20
2024-04-14T16:40:06.407Z,21.20
2024-04-14T16:42:36.359Z,21.10
2024-04-14T16:45:15.701Z,21.10
2024-04-14T16:47:45.484Z,21.00
2024-04-14T16:50:21.464Z,21.00
2024-04-14T16:52:52.963Z,21.00
2024-04-14T16:55:34.003Z,21.00
2024-04-14T16:58:02.555Z,20.90
2024-04-14T17:00:45.811Z,20.90
2024-04-14T17:03:16.351Z,20.90
2024-04-14T17:06:00.601Z,20.90
2024-04-14T17:08:29.468Z,20.80
2024-04-14T17:11:08.391Z,20.80
2024-04-14T17:13:39.179Z,20.80
2024-04-14T17:16:18.323Z,20.70
2024-04-14T17:18:50.720Z,20.70
2024-04-14T17:21:29.602Z,20.70
2024-04-14T17:23:59.836Z,20.60
2024-04-14T17:26:38.452Z,20.60
2024-04-14T17:29:08.178Z,20.60
2024-04-14T17:31:49.116Z,20.60
2024-04-14T17:37:12.302Z,20.60
2024-04-14T17:39:40.719Z,20.50
2024-04-14T17:42:15.618Z,20.50
2024-04-14T17:44:47.958Z,20.40
2024-04-14T17:47:39.992Z,20.40
2024-04-14T17:50:12.442Z,20.40
2024-04-14T17:52:49.023Z,20.30
2024-04-14T17:55:19.208Z,20.30
2024-04-14T17:57:53.119Z,20.20
2024-04-14T18:00:23.091Z,20.20
2024-04-14T18:03:09.149Z,20.10
2024-04-14T18:05:39.323Z,20.10
2024-04-14T18:08:14.918Z,20.00
2024-04-14T18:10:45.193Z,19.90
2024-04-14T18:13:17.499Z,19.90
2024-04-14T18:15:45.778Z,19.80
2024-04-14T18:18:35.185Z,19.70
2024-04-14T18:21:05.054Z,19.70
2024-04-14T18:23:46.789Z,19.60
2024-04-14T18:26:14.169Z,19.60
2024-04-14T18:28:55.403Z,19.50
2024-04-14T18:31:24.855Z,19.40
2024-04-14T18:34:00.072Z,19.40
2024-04-14T18:36:33.163Z,19.30
2024-04-14T18:39:11.814Z,19.30
2024-04-14T18:41:42.824Z,19.30
2024-04-14T18:44:18.660Z,19.20
2024-04-14T18:46:47.642Z,19.20
2024-04-14T18:49:28.787Z,19.10
2024-04-14T18:51:57.651Z,19.10
2024-04-14T18:54:37.041Z,19.10
2024-04-14T18:57:05.596Z,19.10
2024-04-14T18:59:46.372Z,19.00
2024-04-14T19:02:15.114Z,19.00
2024-04-14T19:04:53.599Z,19.00
2024-04-14T19:07:23.585Z,18.90
2024-04-14T19:10:02.739Z,18.90
2024-04-14T19:12:32.582Z,18.90
2024-04-14T19:15:04.499Z,18.80
2024-04-14T19:17:33.259Z,18.80
2024-04-14T19:20:14.819Z,18.80
2024-04-14T19:22:43.948Z,18.70
2024-04-14T19:25:19.222Z,18.70
2024-04-14T19:27:47.654Z,18.70
2024-04-14T19:30:25.092Z,18.60
2024-04-14T19:32:52.773Z,18.60
2024-04-14T19:35:36.868Z,18.60
2024-04-14T19:38:14.497Z,18.60
2024-04-14T19:40:57.708Z,18.60
2024-04-14T19:43:31.053Z,18.50
2024-04-14T19:45:59.795Z,18.50
2024-04-14T19:48:38.770Z,18.50
2024-04-14T19:51:16.033Z,18.40
2024-04-14T19:53:52.046Z,18.40
2024-04-14T19:56:20.602Z,18.40
2024-04-14T19:58:56.412Z,18.40
2024-04-14T20:01:26.842Z,18.40
2024-04-14T20:04:04.892Z,18.40
2024-04-14T20:06:37.028Z,18.40
2024-04-14T20:09:11.317Z,18.40
2024-04-14T20:11:41.138Z,18.40
2024-04-14T20:14:20.289Z,18.40
2024-04-14T20:16:49.419Z,18.30
2024-04-14T20:19:20.924Z,18.30
2024-04-14T20:21:57.271Z,18.20
2024-04-14T20:24:35.304Z,18.20
2024-04-14T20:27:08.119Z,18.20
2024-04-14T20:29:43.546Z,18.20
2024-04-14T20:32:14.743Z,18.10
2024-04-14T20:34:47.590Z,18.10
2024-04-14T20:37:20.926Z,18.10
2024-04-14T20:39:54.290Z,18.10
2024-04-14T20:42:23.313Z,18.10
2024-04-14T20:45:02.067Z,18.00
2024-04-14T20:47:30.617Z,18.00
2024-04-14T20:50:07.240Z,17.90
2024-04-14T20:52:41.363Z,17.90
2024-04-14T20:55:19.096Z,17.80
2024-04-14T20:57:50.944Z,17.80
2024-04-14T21:00:30.697Z,17.70
2024-04-14T21:02:59.256Z,17.70
2024-04-14T21:05:34.690Z,17.60
2024-04-14T21:08:07.331Z,17.60
2024-04-14T21:10:41.887Z,17.50
2024-04-14T21:13:13.171Z,17.40
2024-04-14T21:15:47.950Z,17.30
2024-04-14T21:18:18.408Z,17.30
2024-04-14T21:20:58.174Z,17.20
2024-04-14T21:23:31.985Z,17.20
2024-04-14T21:26:04.772Z,17.20
2024-04-14T21:28:34.299Z,17.20
2024-04-14T21:31:12.595Z,17.10
2024-04-14T21:33:44.446Z,17.10
2024-04-14T21:36:17.099Z,17.10
2024-04-14T21:38:50.894Z,17.00
2024-04-14T21:41:24.754Z,17.00
2024-04-14T21:43:52.232Z,16.90
2024-04-14T21:46:39.196Z,16.90
2024-04-14T21:49:06.737Z,16.80
2024-04-14T21:51:41.274Z,16.80
2024-04-14T21:54:10.934Z,16.80
2024-04-14T21:56:45.700Z,16.80
2024-04-14T21:59:19.025Z,16.80
2024-04-14T22:02:00.548Z,16.80
2024-04-14T22:04:28.492Z,16.80
2024-04-14T22:07:04.874Z,16.70
2024-04-14T22:09:39.519Z,16.70
2024-04-14T22:12:17.770Z,16.70
2024-04-14T22:14:45.642Z,16.60
2024-04-14T22:17:19.324Z,16.60
2024-04-14T22:19:50.651Z,16.50
2024-04-14T22:22:26.745Z,16.50
2024-04-14T22:25:00.490Z,16.50
2024-04-14T22:27:43.483Z,16.40
2024-04-14T22:30:11.741Z,16.40
2024-04-14T22:32:47.165Z,16.40
2024-04-14T22:35:17.974Z,16.40
2024-04-14T22:37:53.938Z,16.40
2024-04-14T22:40:33.425Z,16.40
2024-04-14T22:43:09.680Z,16.30
2024-04-14T22:45:41.945Z,16.30
2024-04-14T22:48:16.081Z,16.30
2024-04-14T22:50:46.291Z,16.30
2024-04-14T22:53:24.800Z,16.30
2024-04-14T22:55:57.262Z,16.20
2024-04-14T22:58:31.196Z,16.20
2024-04-14T23:01:06.125Z,16.10
2024-04-14T23:03:40.007Z,16.10
2024-04-14T23:06:12.618Z,16.10
2024-04-14T23:08:47.027Z,16.10
2024-04-14T23:11:31.626Z,16.10
2024-04-14T23:14:06.603Z,16.10
2024-04-14T23:16:33.999Z,16.10
2024-04-14T23:19:06.853Z,16.10
2024-04-14T23:21:36.961Z,16.10
2024-04-14T23:24:07.194Z,16.10
2024-04-14T23:26:39.292Z,16.10
2024-04-14T23:29:18.332Z,16.10
2024-04-14T23:31:47.572Z,16.10
2024-04-14T23:34:19.792Z,16.10
2024-04-14T23:36:50.354Z,16.10
2024-04-14T23:39:29.320Z,16.10
2024-04-14T23:41:58.958Z,16.10
2024-04-14T23:44:42.490Z,16.10
2024-04-14T23:47:24.934Z,16.10
2024-04-14T23:49:53.383Z,16.00
2024-04-14T23:52:29.782Z,16.00
2024-04-14T23:54:58.200Z,16.00
2024-04-14T23:57:50.655Z,16.00
